createdAt,value
2022-09-06T00:00:23.574Z,19.01
2022-09-06T00:02:49.947Z,18.97
2022-09-06T00:05:16.282Z,18.97
2022-09-06T00:07:42.595Z,18.98
2022-09-06T00:10:08.890Z,18.94
2022-09-06T00:12:35.248Z,18.91
2022-09-06T00:15:01.557Z,18.88
2022-09-06T00:17:27.841Z,18.85
2022-09-06T00:19:54.152Z,18.79
2022-09-06T00:22:20.447Z,18.77
2022-09-06T00:24:46.761Z,18.77
2022-09-06T00:27:13.081Z,18.76
2022-09-06T00:29:39.370Z,18.71
2022-09-06T00:32:05.675Z,18.44
2022-09-06T00:34:31.982Z,18.56
2022-09-06T00:36:58.273Z,18.53
2022-09-06T00:39:24.664Z,18.53
2022-09-06T00:41:50.961Z,18.53
2022-09-06T00:44:17.265Z,18.53
2022-09-06T00:46:43.623Z,18.49
2022-09-06T00:49:09.923Z,18.47
2022-09-06T00:51:36.364Z,18.48
2022-09-06T00:54:02.662Z,18.43
2022-09-06T00:56:28.984Z,18.42
2022-09-06T00:58:55.297Z,18.41
2022-09-06T01:01:21.752Z,18.27
2022-09-06T01:03:48.099Z,18.26
2022-09-06T01:06:14.400Z,18.04
2022-09-06T01:08:40.708Z,18.18
2022-09-06T01:11:07.009Z,18.20
2022-09-06T01:13:34.343Z,18.05
2022-09-06T01:16:00.746Z,18.10
2022-09-06T01:18:27.284Z,18.11
2022-09-06T01:20:53.637Z,18.08
2022-09-06T01:23:19.957Z,18.11
2022-09-06T01:25:46.261Z,18.07
2022-09-06T01:28:12.568Z,18.02
2022-09-06T01:30:38.903Z,18.04
2022-09-06T01:33:05.300Z,18.02
2022-09-06T01:35:31.605Z,17.53
2022-09-06T01:37:57.952Z,17.73
2022-09-06T01:40:24.256Z,17.74
2022-09-06T01:42:50.896Z,17.80
2022-09-06T01:45:17.201Z,17.77
2022-09-06T01:47:43.516Z,17.82
2022-09-06T01:50:09.820Z,17.88
2022-09-06T01:52:36.583Z,17.86
2022-09-06T01:55:02.909Z,17.82
2022-09-06T01:57:29.215Z,17.70
2022-09-06T01:59:55.529Z,17.40
2022-09-06T02:02:21.892Z,17.61
2022-09-06T02:04:48.241Z,17.66
2022-09-06T02:07:14.539Z,17.66
2022-09-06T02:09:43.656Z,17.66
2022-09-06T02:12:09.985Z,17.62
2022-09-06T02:14:36.291Z,17.51
2022-09-06T02:17:02.851Z,17.54
2022-09-06T02:19:29.228Z,17.59
2022-09-06T02:21:55.636Z,17.57
2022-09-06T02:24:21.938Z,17.51
2022-09-06T02:26:48.262Z,17.50
2022-09-06T02:29:14.712Z,17.53
2022-09-06T02:31:41.301Z,17.55
2022-09-06T02:34:07.619Z,17.50
2022-09-06T02:36:33.927Z,17.50
2022-09-06T02:39:00.261Z,17.51
2022-09-06T02:41:26.595Z,17.42
2022-09-06T02:43:52.917Z,17.43
2022-09-06T02:46:19.308Z,17.44
2022-09-06T02:48:46.721Z,17.41
2022-09-06T02:51:13.028Z,17.31
2022-09-06T02:53:39.646Z,17.36
2022-09-06T02:56:05.948Z,17.35
2022-09-06T02:58:32.259Z,17.36
2022-09-06T03:00:58.573Z,17.38
2022-09-06T03:03:25.029Z,17.35
2022-09-06T03:05:51.323Z,17.26
2022-09-06T03:08:17.628Z,17.27
2022-09-06T03:10:43.919Z,17.26
2022-09-06T03:13:10.224Z,16.98
2022-09-06T03:15:36.519Z,16.80
2022-09-06T03:18:02.819Z,16.87
2022-09-06T03:20:30.290Z,16.90
2022-09-06T03:22:58.137Z,17.01
2022-09-06T03:25:25.532Z,17.01
2022-09-06T03:27:51.840Z,17.05
2022-09-06T03:30:18.147Z,17.04
2022-09-06T03:32:45.083Z,17.04
2022-09-06T03:35:11.511Z,17.02
2022-09-06T03:37:37.812Z,17.00
2022-09-06T03:40:04.149Z,16.93
2022-09-06T03:42:30.803Z,16.74
2022-09-06T03:44:57.113Z,16.55
2022-09-06T03:47:23.410Z,16.69
2022-09-06T03:49:50.807Z,16.75
2022-09-06T03:52:17.111Z,16.76
2022-09-06T03:54:43.412Z,16.57
2022-09-06T03:57:09.708Z,16.71
2022-09-06T03:59:36.031Z,16.74
2022-09-06T04:02:02.377Z,16.63
2022-09-06T04:04:28.743Z,16.71
2022-09-06T04:06:55.041Z,16.73
2022-09-06T04:09:21.681Z,16.69
2022-09-06T04:11:47.973Z,16.52
2022-09-06T04:14:14.439Z,16.56
2022-09-06T04:16:40.885Z,16.52
2022-09-06T04:19:07.252Z,16.61
2022-09-06T04:21:33.543Z,16.66
2022-09-06T04:24:00.181Z,16.70
2022-09-06T04:26:26.475Z,16.71
2022-09-06T04:28:52.787Z,16.54
2022-09-06T04:31:19.137Z,16.60
2022-09-06T04:33:45.572Z,16.66
2022-09-06T04:36:11.927Z,16.70
2022-09-06T04:38:38.225Z,16.76
2022-09-06T04:41:04.530Z,16.79
2022-09-06T04:43:30.851Z,16.85
2022-09-06T04:45:57.208Z,16.87
2022-09-06T04:48:23.566Z,16.89
2022-09-06T04:50:49.872Z,16.90
2022-09-06T04:53:16.194Z,16.90
2022-09-06T04:55:42.607Z,16.94
2022-09-06T04:58:08.912Z,17.01
2022-09-06T05:00:35.842Z,17.06
2022-09-06T05:03:02.143Z,17.07
2022-09-06T05:05:28.465Z,17.09
2022-09-06T05:07:54.759Z,17.10
2022-09-06T05:10:21.059Z,16.99
2022-09-06T05:12:47.376Z,17.12
2022-09-06T05:15:13.929Z,17.17
2022-09-06T05:17:40.268Z,17.14
2022-09-06T05:20:06.575Z,17.12
2022-09-06T05:22:32.887Z,17.13
2022-09-06T05:24:59.188Z,17.18
2022-09-06T05:27:25.503Z,17.42
2022-09-06T05:29:51.820Z,17.52
2022-09-06T05:32:18.129Z,17.60
2022-09-06T05:34:44.438Z,17.72
2022-09-06T05:37:10.754Z,17.80
2022-09-06T05:39:37.111Z,17.95
2022-09-06T05:42:06.788Z,17.99
2022-09-06T05:44:33.083Z,18.05
2022-09-06T05:46:59.411Z,18.15
2022-09-06T05:49:25.721Z,18.32
2022-09-06T05:51:52.272Z,18.38
2022-09-06T05:54:18.567Z,18.47
2022-09-06T05:56:44.888Z,18.50
2022-09-06T05:59:11.188Z,18.62
2022-09-06T06:01:37.591Z,18.73
2022-09-06T06:04:04.010Z,18.88
2022-09-06T06:06:30.438Z,19.03
2022-09-06T06:08:56.934Z,19.02
2022-09-06T06:11:23.240Z,19.12
2022-09-06T06:13:49.538Z,19.14
2022-09-06T06:16:15.913Z,19.12
2022-09-06T06:18:42.288Z,19.19
2022-09-06T06:21:08.627Z,19.18
2022-09-06T06:23:34.929Z,19.22
2022-09-06T06:26:01.238Z,19.31
2022-09-06T06:28:27.788Z,19.43
2022-09-06T06:30:54.491Z,19.38
2022-09-06T06:33:20.789Z,19.51
2022-09-06T06:35:47.087Z,19.61
2022-09-06T06:38:13.383Z,19.65
2022-09-06T06:40:39.693Z,19.69
2022-09-06T06:43:05.991Z,19.61
2022-09-06T06:45:32.328Z,19.81
2022-09-06T06:47:58.679Z,20.00
2022-09-06T06:50:24.979Z,20.03
2022-09-06T06:52:51.279Z,20.16
2022-09-06T06:55:17.628Z,20.16
2022-09-06T06:57:43.960Z,20.26
2022-09-06T07:00:10.937Z,20.26
2022-09-06T07:02:37.200Z,20.23
2022-09-06T07:07:49.810Z,20.41
2022-09-06T07:13:02.443Z,20.47
2022-09-06T07:15:28.795Z,20.67
2022-09-06T07:17:55.128Z,20.52
2022-09-06T07:20:21.583Z,20.54
2022-09-06T07:22:48.760Z,20.49
2022-09-06T07:25:21.025Z,20.44
2022-09-06T07:27:48.775Z,20.51
2022-09-06T07:30:15.941Z,20.59
2022-09-06T07:32:42.247Z,20.51
2022-09-06T07:35:08.570Z,20.46
2022-09-06T07:37:35.378Z,20.55
2022-09-06T07:40:01.835Z,20.48
2022-09-06T07:42:29.338Z,20.49
2022-09-06T07:44:58.032Z,20.43
2022-09-06T07:53:15.420Z,20.60
2022-09-06T07:55:43.221Z,20.64
2022-09-06T07:58:09.532Z,20.53
2022-09-06T08:00:35.969Z,20.60
2022-09-06T08:03:02.350Z,20.63
2022-09-06T08:11:01.319Z,20.80
2022-09-06T08:13:27.716Z,20.81
2022-09-06T08:15:54.090Z,21.00
2022-09-06T08:18:20.428Z,20.96
2022-09-06T08:20:46.738Z,20.91
2022-09-06T08:23:13.203Z,21.03
2022-09-06T08:25:39.533Z,21.21
2022-09-06T08:28:05.871Z,21.26
2022-09-06T08:30:32.217Z,21.32
2022-09-06T08:32:58.654Z,21.52
2022-09-06T08:35:24.956Z,21.34
2022-09-06T08:37:51.257Z,21.47
2022-09-06T08:40:17.569Z,21.73
2022-09-06T08:42:44.008Z,21.64
2022-09-06T08:45:12.445Z,21.80
2022-09-06T08:47:38.747Z,21.94
2022-09-06T08:50:05.058Z,21.96
2022-09-06T08:52:31.384Z,22.08
2022-09-06T08:54:57.703Z,22.44
2022-09-06T08:57:24.031Z,22.61
2022-09-06T08:59:50.359Z,22.69
2022-09-06T09:02:16.737Z,22.84
2022-09-06T09:04:44.087Z,22.82
2022-09-06T09:07:10.538Z,22.94
2022-09-06T09:09:36.859Z,22.90
2022-09-06T09:12:03.223Z,22.65
2022-09-06T09:14:29.529Z,22.89
2022-09-06T09:16:56.137Z,22.92
2022-09-06T09:19:22.447Z,23.07
2022-09-06T09:21:48.798Z,22.92
2022-09-06T09:24:15.732Z,23.13
2022-09-06T09:26:41.996Z,23.43
2022-09-06T09:29:08.358Z,22.97
2022-09-06T09:31:34.924Z,23.40
2022-09-06T09:34:04.621Z,23.37
2022-09-06T09:36:30.932Z,23.25
2022-09-06T09:38:58.232Z,23.05
2022-09-06T09:41:24.541Z,22.96
2022-09-06T09:43:50.853Z,22.84
2022-09-06T09:46:17.290Z,22.70
2022-09-06T09:48:43.666Z,22.82
2022-09-06T09:51:09.957Z,23.00
2022-09-06T09:53:36.279Z,23.06
2022-09-06T09:56:02.573Z,23.29
2022-09-06T09:58:29.169Z,23.40
2022-09-06T10:00:55.635Z,23.40
2022-09-06T10:03:22.022Z,23.43
2022-09-06T10:05:48.803Z,23.37
2022-09-06T10:08:15.132Z,23.72
2022-09-06T10:10:42.206Z,23.65
2022-09-06T10:13:08.503Z,23.87
2022-09-06T10:15:34.804Z,24.00
2022-09-06T10:18:01.099Z,23.90
2022-09-06T10:20:27.407Z,24.11
2022-09-06T10:22:53.706Z,23.75
2022-09-06T10:25:20.041Z,23.83
2022-09-06T10:28:01.683Z,23.94
2022-09-06T10:30:32.644Z,23.99
2022-09-06T10:32:58.948Z,23.83
2022-09-06T10:35:25.340Z,24.07
2022-09-06T10:37:51.684Z,24.27
2022-09-06T10:40:18.008Z,24.30
2022-09-06T10:42:45.127Z,24.10
2022-09-06T10:45:11.451Z,24.41
2022-09-06T10:47:37.781Z,24.29
2022-09-06T10:50:05.096Z,24.27
2022-09-06T10:52:31.388Z,24.43
2022-09-06T10:54:57.729Z,24.27
2022-09-06T11:00:13.327Z,24.41
2022-09-06T11:02:40.116Z,24.44
2022-09-06T11:10:40.300Z,25.13
2022-09-06T11:13:06.628Z,25.32
2022-09-06T11:15:33.054Z,25.11
2022-09-06T11:17:59.432Z,24.87
2022-09-06T11:20:31.274Z,24.76
2022-09-06T11:22:58.605Z,24.86
2022-09-06T11:25:24.907Z,24.86
2022-09-06T11:27:53.991Z,24.91
2022-09-06T11:30:25.573Z,24.63
2022-09-06T11:32:51.880Z,24.79
2022-09-06T11:35:18.190Z,24.86
2022-09-06T11:37:44.627Z,24.96
2022-09-06T11:40:27.338Z,24.93
2022-09-06T11:42:54.884Z,24.90
2022-09-06T11:45:21.728Z,25.00
2022-09-06T11:47:48.234Z,25.06
2022-09-06T11:50:14.535Z,25.24
2022-09-06T11:52:40.848Z,25.33
2022-09-06T11:55:07.241Z,25.40
2022-09-06T11:57:33.548Z,25.15
2022-09-06T12:00:00.879Z,24.98
2022-09-06T12:02:27.271Z,25.24
2022-09-06T12:04:56.148Z,25.44
2022-09-06T12:07:23.493Z,25.51
2022-09-06T12:09:50.387Z,25.94
2022-09-06T12:12:17.145Z,26.01
2022-09-06T12:14:43.540Z,25.90
2022-09-06T12:17:09.954Z,26.10
2022-09-06T12:19:37.493Z,26.14
2022-09-06T12:22:05.248Z,26.00
2022-09-06T12:24:31.712Z,26.28
2022-09-06T12:26:58.010Z,26.12
2022-09-06T12:29:24.301Z,26.34
2022-09-06T12:31:50.657Z,26.32
2022-09-06T12:34:17.003Z,26.67
2022-09-06T12:36:43.303Z,26.27
2022-09-06T12:39:09.637Z,26.40
2022-09-06T12:41:38.280Z,26.44
2022-09-06T12:44:08.024Z,26.56
2022-09-06T12:46:34.418Z,26.24
2022-09-06T12:49:00.807Z,26.22
2022-09-06T12:51:27.171Z,26.10
2022-09-06T12:53:53.512Z,25.99
2022-09-06T12:56:19.821Z,26.01
2022-09-06T12:58:46.143Z,26.12
2022-09-06T13:01:12.564Z,26.07
2022-09-06T13:03:38.899Z,26.12
2022-09-06T13:06:05.353Z,26.01
2022-09-06T13:08:31.662Z,25.93
2022-09-06T13:10:57.959Z,25.73
2022-09-06T13:13:24.266Z,25.60
2022-09-06T13:15:50.662Z,25.74
2022-09-06T13:18:16.986Z,25.75
2022-09-06T13:20:43.642Z,25.60
2022-09-06T13:23:09.934Z,25.29
2022-09-06T13:25:36.255Z,25.27
2022-09-06T13:28:03.385Z,25.34
2022-09-06T13:30:29.692Z,25.06
2022-09-06T13:32:55.990Z,25.05
2022-09-06T13:35:23.760Z,25.04
2022-09-06T13:37:51.100Z,24.96
2022-09-06T13:40:17.404Z,24.57
2022-09-06T13:42:43.856Z,24.19
2022-09-06T13:45:10.157Z,23.42
2022-09-06T13:47:36.464Z,22.76
2022-09-06T13:50:03.114Z,22.57
2022-09-06T13:52:29.425Z,22.21
2022-09-06T13:54:55.750Z,21.97
2022-09-06T13:57:24.508Z,21.51
2022-09-06T13:59:51.086Z,21.68
2022-09-06T14:02:19.734Z,21.23
2022-09-06T14:04:46.067Z,21.65
2022-09-06T14:07:12.395Z,21.75
2022-09-06T14:09:39.027Z,21.88
2022-09-06T14:12:06.783Z,22.06
2022-09-06T14:14:33.085Z,21.82
2022-09-06T14:16:59.380Z,21.91
2022-09-06T14:19:25.702Z,22.15
2022-09-06T14:21:52.557Z,22.19
2022-09-06T14:24:18.892Z,22.34
2022-09-06T14:26:45.203Z,22.34
2022-09-06T14:29:11.534Z,22.26
2022-09-06T14:31:38.841Z,22.50
2022-09-06T14:34:05.155Z,22.25
2022-09-06T14:36:31.553Z,22.50
2022-09-06T14:38:57.893Z,22.43
2022-09-06T14:41:24.217Z,22.38
2022-09-06T14:43:50.618Z,22.68
2022-09-06T14:46:18.138Z,22.69
2022-09-06T14:48:44.512Z,22.65
2022-09-06T14:51:10.967Z,22.48
2022-09-06T14:53:40.624Z,22.63
2022-09-06T14:56:07.391Z,22.64
2022-09-06T14:58:33.788Z,22.67
2022-09-06T15:01:00.153Z,22.62
2022-09-06T15:03:31.668Z,22.26
2022-09-06T15:05:57.983Z,22.50
2022-09-06T15:08:24.318Z,22.53
2022-09-06T15:10:50.686Z,22.58
2022-09-06T15:13:17.008Z,22.41
2022-09-06T15:15:43.413Z,22.54
2022-09-06T15:18:09.750Z,22.47
2022-09-06T15:20:36.074Z,21.97
2022-09-06T15:23:25.814Z,22.13
2022-09-06T15:25:50.405Z,22.19
2022-09-06T15:28:17.758Z,22.36
2022-09-06T15:30:44.253Z,22.39
2022-09-06T15:33:10.633Z,22.41
2022-09-06T15:35:37.119Z,22.45
2022-09-06T15:38:03.423Z,22.39
2022-09-06T15:40:29.729Z,22.36
2022-09-06T15:42:56.041Z,22.26
2022-09-06T15:45:23.107Z,22.19
2022-09-06T15:47:49.545Z,21.92
2022-09-06T15:50:29.064Z,21.96
2022-09-06T15:53:02.353Z,22.05
2022-09-06T15:55:47.472Z,21.98
2022-09-06T15:58:13.841Z,22.06
2022-09-06T16:00:40.139Z,21.98
2022-09-06T16:03:06.495Z,21.86
2022-09-06T16:08:19.569Z,21.78
2022-09-06T16:10:46.133Z,21.98
2022-09-06T16:13:12.985Z,21.97
2022-09-06T16:15:39.292Z,21.63
2022-09-06T16:18:05.595Z,21.42
2022-09-06T16:20:33.512Z,21.46
2022-09-06T16:22:59.924Z,21.72
2022-09-06T16:25:26.225Z,21.82
2022-09-06T16:27:52.536Z,21.88
2022-09-06T16:30:18.867Z,21.92
2022-09-06T16:32:45.184Z,21.93
2022-09-06T16:35:11.940Z,21.97
2022-09-06T16:37:38.238Z,21.95
2022-09-06T16:40:04.678Z,21.96
2022-09-06T16:42:31.016Z,22.00
2022-09-06T16:44:58.363Z,22.04
2022-09-06T16:47:24.744Z,22.04
2022-09-06T16:49:51.071Z,22.07
2022-09-06T16:52:17.388Z,22.07
2022-09-06T16:54:43.723Z,21.98
2022-09-06T16:57:10.034Z,21.80
2022-09-06T16:59:37.536Z,21.65
2022-09-06T17:02:03.907Z,21.67
2022-09-06T17:04:30.304Z,21.76
2022-09-06T17:06:56.613Z,21.86
2022-09-06T17:09:23.091Z,21.90
2022-09-06T17:11:52.561Z,21.93
2022-09-06T17:14:18.857Z,21.89
2022-09-06T17:17:04.079Z,21.86
2022-09-06T17:19:31.298Z,21.82
2022-09-06T17:21:57.591Z,21.74
2022-09-06T17:24:23.929Z,21.70
2022-09-06T17:26:50.227Z,21.53
2022-09-06T17:29:16.523Z,21.55
2022-09-06T17:31:43.191Z,21.60
2022-09-06T17:34:09.482Z,21.59
2022-09-06T17:36:35.808Z,21.59
2022-09-06T17:39:02.128Z,21.55
2022-09-06T17:41:28.511Z,21.47
2022-09-06T17:43:54.828Z,21.41
2022-09-06T17:46:23.285Z,21.39
2022-09-06T17:48:52.917Z,21.39
2022-09-06T17:51:19.225Z,21.30
2022-09-06T17:53:46.741Z,21.31
2022-09-06T17:56:13.040Z,21.32
2022-09-06T17:58:40.351Z,21.31
2022-09-06T18:01:06.704Z,21.17
2022-09-06T18:03:33.379Z,21.19
2022-09-06T18:05:59.686Z,21.11
2022-09-06T18:08:26.006Z,20.84
2022-09-06T18:10:52.334Z,20.91
2022-09-06T18:13:18.641Z,21.01
2022-09-06T18:15:44.967Z,20.91
2022-09-06T18:18:11.649Z,20.84
2022-09-06T18:20:37.948Z,20.81
2022-09-06T18:23:04.277Z,20.90
2022-09-06T18:25:30.857Z,20.86
2022-09-06T18:27:57.155Z,20.85
2022-09-06T18:30:23.449Z,20.82
2022-09-06T18:32:50.237Z,20.76
2022-09-06T18:35:16.539Z,20.71
2022-09-06T18:37:42.835Z,20.70
2022-09-06T18:40:09.206Z,20.72
2022-09-06T18:42:35.532Z,20.67
2022-09-06T18:45:02.023Z,20.56
2022-09-06T18:47:28.322Z,20.58
2022-09-06T18:49:54.656Z,20.55
2022-09-06T18:52:21.028Z,20.53
2022-09-06T18:54:48.938Z,20.49
2022-09-06T18:57:16.373Z,20.44
2022-09-06T18:59:42.684Z,20.42
2022-09-06T19:02:09.028Z,20.31
2022-09-06T19:04:35.426Z,20.31
2022-09-06T19:07:02.036Z,20.28
2022-09-06T19:09:28.533Z,20.23
2022-09-06T19:11:54.852Z,20.23
2022-09-06T19:14:21.721Z,20.22
2022-09-06T19:16:48.603Z,20.19
2022-09-06T19:19:14.987Z,20.14
2022-09-06T19:21:42.561Z,19.94
2022-09-06T19:24:09.165Z,20.02
2022-09-06T19:26:35.487Z,19.89
2022-09-06T19:29:02.148Z,19.94
2022-09-06T19:31:28.487Z,19.94
2022-09-06T19:33:54.828Z,19.89
2022-09-06T19:36:21.436Z,19.89
2022-09-06T19:39:02.574Z,19.73
2022-09-06T19:41:30.173Z,19.78
2022-09-06T19:43:56.483Z,19.76
2022-09-06T19:46:23.134Z,19.75
2022-09-06T19:48:49.476Z,19.76
2022-09-06T19:51:15.804Z,19.67
2022-09-06T19:53:42.107Z,19.64
2022-09-06T19:56:08.403Z,19.61
2022-09-06T19:58:34.717Z,19.59
2022-09-06T20:01:01.187Z,19.60
2022-09-06T20:03:27.558Z,19.60
2022-09-06T20:05:53.866Z,19.53
2022-09-06T20:08:20.169Z,19.51
2022-09-06T20:10:46.469Z,19.51
2022-09-06T20:13:12.807Z,19.52
2022-09-06T20:15:39.096Z,19.52
2022-09-06T20:18:05.411Z,19.49
2022-09-06T20:20:31.716Z,19.48
2022-09-06T20:22:58.067Z,19.42
2022-09-06T20:25:24.408Z,19.40
2022-09-06T20:27:50.795Z,19.37
2022-09-06T20:30:17.340Z,19.34
2022-09-06T20:32:43.653Z,19.29
2022-09-06T20:35:09.970Z,19.24
2022-09-06T20:37:38.610Z,19.24
2022-09-06T20:40:05.728Z,19.08
2022-09-06T20:42:32.228Z,19.20
2022-09-06T20:44:58.541Z,19.20
2022-09-06T20:47:24.840Z,19.18
2022-09-06T20:49:51.186Z,19.16
2022-09-06T20:52:17.983Z,19.14
2022-09-06T20:54:44.291Z,19.10
2022-09-06T20:57:10.966Z,18.97
2022-09-06T20:59:37.263Z,19.08
2022-09-06T21:02:03.638Z,19.10
2022-09-06T21:04:29.972Z,19.09
2022-09-06T21:06:56.316Z,19.07
2022-09-06T21:09:22.626Z,18.95
2022-09-06T21:11:49.088Z,18.95
2022-09-06T21:14:15.430Z,18.93
2022-09-06T21:16:41.848Z,18.91
2022-09-06T21:19:08.277Z,18.89
2022-09-06T21:21:34.739Z,18.88
2022-09-06T21:24:01.061Z,18.84
2022-09-06T21:26:27.378Z,18.78
2022-09-06T21:28:57.312Z,18.75
2022-09-06T21:31:23.796Z,18.70
2022-09-06T21:33:52.502Z,18.68
2022-09-06T21:36:18.814Z,18.63
2022-09-06T21:38:45.495Z,18.54
2022-09-06T21:41:11.815Z,18.55
2022-09-06T21:43:38.135Z,18.56
2022-09-06T21:46:04.427Z,18.53
2022-09-06T21:48:30.804Z,18.53
2022-09-06T21:50:57.358Z,18.54
2022-09-06T21:53:23.687Z,18.53
2022-09-06T21:55:49.997Z,18.49
2022-09-06T21:58:16.558Z,18.45
2022-09-06T22:00:42.924Z,18.41
2022-09-06T22:03:09.297Z,18.36
2022-09-06T22:05:35.617Z,18.32
2022-09-06T22:08:02.097Z,18.33
2022-09-06T22:10:28.452Z,18.34
2022-09-06T22:12:54.755Z,18.34
2022-09-06T22:15:22.094Z,18.33
2022-09-06T22:17:48.395Z,18.26
2022-09-06T22:20:14.688Z,18.19
2022-09-06T22:22:41.231Z,18.18
2022-09-06T22:25:07.527Z,18.19
2022-09-06T22:27:33.826Z,18.19
2022-09-06T22:30:00.129Z,18.16
2022-09-06T22:32:26.437Z,18.12
2022-09-06T22:34:52.764Z,18.14
2022-09-06T22:37:19.154Z,18.08
2022-09-06T22:39:45.551Z,18.04
2022-09-06T22:42:11.884Z,17.90
2022-09-06T22:44:38.800Z,17.82
2022-09-06T22:47:05.291Z,17.92
2022-09-06T22:49:31.596Z,17.99
2022-09-06T22:51:57.892Z,17.93
2022-09-06T22:54:24.185Z,17.92
2022-09-06T22:56:50.520Z,17.91
2022-09-06T22:59:16.831Z,17.84
2022-09-06T23:01:43.139Z,17.87
2022-09-06T23:04:09.517Z,17.84
2022-09-06T23:06:35.850Z,17.82
2022-09-06T23:09:02.167Z,17.81
2022-09-06T23:11:28.565Z,17.80
2022-09-06T23:13:54.875Z,17.71
2022-09-06T23:16:24.505Z,17.69
2022-09-06T23:18:50.878Z,17.59
2022-09-06T23:21:17.213Z,17.62
2022-09-06T23:23:43.534Z,17.63
2022-09-06T23:26:09.877Z,17.60
2022-09-06T23:28:36.188Z,17.47
2022-09-06T23:31:02.733Z,17.56
2022-09-06T23:33:29.284Z,17.54
2022-09-06T23:35:55.596Z,17.54
2022-09-06T23:38:21.920Z,17.50
2022-09-06T23:40:48.233Z,17.50
2022-09-06T23:43:14.543Z,17.51
2022-09-06T23:45:40.839Z,17.49
2022-09-06T23:48:07.141Z,17.53
2022-09-06T23:50:33.529Z,17.54
2022-09-06T23:52:59.833Z,17.37
2022-09-06T23:55:26.137Z,17.45
2022-09-06T23:57:52.491Z,17.38
